< < Back
Terminal Aerodrome Forecast


Current Version              Previous Versions:   1  2  3  4  5  6  7  8  9  

Terminal Aerodrome Forecast

173
FTUS44 KBMX 261100
TAFANB
TAF
KANB 261131Z 2612/2712 00000KT 5SM BR FEW250
     FM261300 26006KT P6SM FEW050=

Latest METAR

058
SAUS70 KWBC 261900 RRH
MTRANB
METAR KANB 261853Z AUTO 20009KT 10SM CLR 32/16 A3005 RMK AO2 SLP165
T03170161


USA.gov is the U.S. government's official web portal to all federal, state and local government web resources and services.